Time;durP1;ratioP1;P1;durP2;ratioP2;P2;SDS_P1;SDS_P2;PMS_P1;PMS_P2;Temp;Humidity;BMP_temperature;BMP_pressure;BME280_temperature;BME280_humidity;BME280_pressure;Samples;Min_cycle;Max_cycle;Signal;HPM_P1;HPM_P2
2023/03/16 00:02:23;;;;;;;15.73;7.37;;;;;-0.70;96652.00;;;;8397782;28;20222;-73
2023/03/16 00:06:26;;;;;;;13.60;7.53;;;;;-0.70;96659.00;;;;8397426;28;20200;-73
2023/03/16 00:10:29;;;;;;;14.20;7.43;;;;;-0.80;96641.00;;;;8402168;28;20219;-73
2023/03/16 00:14:34;;;;;;;21.80;8.07;;;;;-0.70;96658.00;;;;8404330;28;20207;-73
2023/03/16 00:18:39;;;;;;;41.30;11.27;;;;;-0.60;96659.00;;;;8403987;28;20225;-73
2023/03/16 00:22:43;;;;;;;17.27;8.37;;;;;-0.60;96664.00;;;;8385851;28;20652;-72
2023/03/16 00:26:46;;;;;;;52.50;12.20;;;;;-0.50;96664.00;;;;8404236;28;20283;-73
2023/03/16 00:30:49;;;;;;;85.33;13.10;;;;;-0.60;96659.00;;;;8404166;28;20223;-72
2023/03/16 00:34:57;;;;;;;21.83;9.10;;;;;-0.70;96658.00;;;;8403501;28;20196;-73
2023/03/16 00:39:04;;;;;;;19.13;9.07;;;;;-0.80;96661.00;;;;8403565;28;20188;-72
2023/03/16 00:43:06;;;;;;;23.20;10.07;;;;;-0.80;96657.00;;;;8402844;28;20193;-72
2023/03/16 00:47:13;;;;;;;29.80;11.40;;;;;-0.90;96660.00;;;;8403169;28;20203;-72
2023/03/16 00:51:23;;;;;;;24.23;9.87;;;;;-0.90;96665.00;;;;8402821;28;20231;-71
2023/03/16 00:55:29;;;;;;;25.30;10.57;;;;;-1.00;96672.00;;;;8401920;28;20196;-72
2023/03/16 00:59:35;;;;;;;24.33;9.63;;;;;-1.00;96667.00;;;;8402643;28;20195;-72
2023/03/16 01:03:40;;;;;;;27.07;10.13;;;;;-1.00;96662.00;;;;8401803;28;20291;-72
2023/03/16 01:07:45;;;;;;;24.00;10.87;;;;;-1.10;96649.00;;;;8402627;28;20579;-72
2023/03/16 01:11:52;;;;;;;22.63;10.07;;;;;-1.20;96650.00;;;;8402133;28;20259;-71
2023/03/16 01:15:55;;;;;;;23.57;10.27;;;;;-1.20;96656.00;;;;8401298;28;20541;-70
2023/03/16 01:19:59;;;;;;;21.97;9.23;;;;;-1.20;96647.00;;;;8402174;28;20196;-70
2023/03/16 01:24:04;;;;;;;18.27;7.93;;;;;-1.30;96642.00;;;;8398199;28;20200;-71
2023/03/16 01:28:07;;;;;;;20.77;8.73;;;;;-1.30;96653.00;;;;8401969;28;20759;-70
2023/03/16 01:32:10;;;;;;;16.80;7.97;;;;;-1.30;96646.00;;;;8400003;28;20230;-71
2023/03/16 01:36:16;;;;;;;16.07;7.47;;;;;-1.30;96643.00;;;;8401385;28;20196;-71
2023/03/16 01:40:21;;;;;;;15.30;6.90;;;;;-1.30;96646.00;;;;8402091;28;20203;-71
2023/03/16 01:44:29;;;;;;;15.40;7.30;;;;;-1.20;96648.00;;;;8399972;28;20192;-73
2023/03/16 01:48:36;;;;;;;21.13;7.77;;;;;-1.20;96657.00;;;;8401361;28;20219;-73
2023/03/16 01:52:42;;;;;;;18.53;7.60;;;;;-1.20;96648.00;;;;8399696;28;20216;-74
2023/03/16 01:56:54;;;;;;;14.03;7.07;;;;;-1.20;96639.00;;;;8399809;28;20629;-75
2023/03/16 02:01:00;;;;;;;13.37;7.90;;;;;-1.20;96642.00;;;;8399832;28;20206;-76
2023/03/16 02:05:09;;;;;;;16.23;8.80;;;;;-1.30;96654.00;;;;8400265;28;20200;-75
2023/03/16 02:09:19;;;;;;;14.43;7.30;;;;;-1.30;96646.00;;;;8400213;28;20196;-75
2023/03/16 02:13:28;;;;;;;12.87;7.07;;;;;-1.40;96647.00;;;;8399947;28;20231;-75
2023/03/16 02:17:36;;;;;;;12.70;6.57;;;;;-1.60;96647.00;;;;8400592;28;20208;-74
2023/03/16 02:21:53;;;;;;;15.50;7.03;;;;;-1.60;96646.00;;;;8400034;28;20192;-75
2023/03/16 02:26:03;;;;;;;17.77;8.30;;;;;-1.70;96647.00;;;;8399958;28;20223;-75
2023/03/16 02:30:16;;;;;;;15.13;7.63;;;;;-1.80;96647.00;;;;8399679;28;20283;-74
2023/03/16 02:34:24;;;;;;;17.10;8.13;;;;;-1.70;96647.00;;;;8398495;28;20254;-74
2023/03/16 02:38:31;;;;;;;23.67;8.77;;;;;-1.60;96642.00;;;;8399594;28;20184;-73
2023/03/16 02:42:35;;;;;;;16.83;8.53;;;;;-1.50;96654.00;;;;8398802;28;20606;-72
2023/03/16 02:46:42;;;;;;;16.20;8.27;;;;;-1.40;96638.00;;;;8398461;28;20222;-72
2023/03/16 02:50:47;;;;;;;17.43;8.70;;;;;-1.30;96635.00;;;;8398007;28;20223;-72
2023/03/16 02:54:52;;;;;;;38.30;8.87;;;;;-1.10;96640.00;;;;8399400;28;20180;-72
2023/03/16 02:58:56;;;;;;;39.77;8.33;;;;;-1.00;96646.00;;;;8398245;28;20203;-71
2023/03/16 03:03:02;;;;;;;63.70;9.27;;;;;-0.80;96652.00;;;;8343240;22;20340;-74
2023/03/16 03:07:05;;;;;;;43.13;8.30;;;;;-0.70;96652.00;;;;8242405;28;20588;-72
2023/03/16 03:11:11;;;;;;;63.03;8.33;;;;;-0.50;96658.00;;;;8246520;28;20222;-72
2023/03/16 03:15:15;;;;;;;42.23;7.97;;;;;-0.30;96662.00;;;;8248353;28;20203;-73
2023/03/16 03:19:21;;;;;;;69.50;9.00;;;;;-0.20;96668.00;;;;8243760;28;20211;-72
2023/03/16 03:23:33;;;;;;;65.53;8.90;;;;;-0.20;96651.00;;;;8243927;28;20702;-70
2023/03/16 03:27:40;;;;;;;68.17;8.63;;;;;-0.30;96656.00;;;;8246007;28;20198;-72
2023/03/16 03:31:43;;;;;;;77.60;8.00;;;;;-0.30;96655.00;;;;8243794;28;20230;-71
2023/03/16 03:35:47;;;;;;;62.57;7.60;;;;;-0.20;96656.00;;;;8239070;28;20233;-70
2023/03/16 03:39:52;;;;;;;47.03;7.00;;;;;-0.20;96658.00;;;;8243340;28;20202;-70
2023/03/16 03:43:55;;;;;;;80.77;7.60;;;;;-0.20;96650.00;;;;8238853;28;20195;-72
2023/03/16 03:48:00;;;;;;;83.07;8.27;;;;;-0.20;96647.00;;;;8245108;28;20195;-72
2023/03/16 03:52:05;;;;;;;54.07;6.97;;;;;-0.20;96656.00;;;;8238046;28;20286;-70
2023/03/16 03:56:08;;;;;;;76.47;8.00;;;;;-0.30;96661.00;;;;8235287;28;20199;-71
2023/03/16 04:00:19;;;;;;;108.77;8.90;;;;;-0.40;96664.00;;;;8246628;28;20195;-70
2023/03/16 04:04:24;;;;;;;51.33;7.20;;;;;-0.50;96660.00;;;;8241240;28;20262;-70
2023/03/16 04:08:28;;;;;;;81.33;8.30;;;;;-0.60;96675.00;;;;8248332;28;20210;-70
2023/03/16 04:12:33;;;;;;;55.50;7.90;;;;;-0.50;96675.00;;;;8249755;28;20631;-70
2023/03/16 04:16:36;;;;;;;77.00;8.93;;;;;-0.60;96671.00;;;;8241292;28;20218;-70
2023/03/16 04:20:44;;;;;;;63.90;8.53;;;;;-0.60;96677.00;;;;8246664;28;20202;-70
2023/03/16 04:24:51;;;;;;;71.57;10.23;;;;;-0.50;96680.00;;;;8243044;28;20258;-70
2023/03/16 04:28:54;;;;;;;73.83;8.33;;;;;-0.50;96670.00;;;;8247365;28;20700;-69
2023/03/16 04:32:57;;;;;;;148.20;11.87;;;;;-0.40;96681.00;;;;8247845;28;20234;-69
2023/03/16 04:37:01;;;;;;;134.67;11.70;;;;;-0.50;96677.00;;;;8244884;28;20237;-69
2023/03/16 04:41:06;;;;;;;97.97;10.40;;;;;-0.50;96668.00;;;;8244410;28;20212;-68
2023/03/16 04:45:11;;;;;;;103.00;10.27;;;;;-0.60;96644.00;;;;8242894;28;20218;-69
2023/03/16 04:49:15;;;;;;;70.50;9.13;;;;;-0.60;96659.00;;;;8244444;28;20254;-67
2023/03/16 04:53:18;;;;;;;55.73;8.93;;;;;-0.60;96637.00;;;;8243053;28;20246;-68
2023/03/16 04:57:23;;;;;;;50.47;7.97;;;;;-0.70;96632.00;;;;8243860;28;20667;-69
2023/03/16 05:01:26;;;;;;;102.17;8.90;;;;;-0.80;96634.00;;;;8247566;28;20273;-68
2023/03/16 05:05:30;;;;;;;102.23;10.27;;;;;-0.80;96628.00;;;;8247520;28;22365;-69
2023/03/16 05:09:33;;;;;;;40.63;8.43;;;;;-0.80;96632.00;;;;8241714;28;20794;-69
2023/03/16 05:13:40;;;;;;;37.93;8.73;;;;;-0.70;96624.00;;;;8245857;28;20238;-69
2023/03/16 05:17:45;;;;;;;32.27;8.60;;;;;-0.60;96633.00;;;;8248139;28;20198;-70
2023/03/16 05:21:48;;;;;;;29.40;8.23;;;;;-0.50;96637.00;;;;8242435;28;20716;-69
2023/03/16 05:25:58;;;;;;;61.97;9.43;;;;;-0.50;96643.00;;;;8249196;28;20199;-68
2023/03/16 05:30:03;;;;;;;44.97;9.13;;;;;-0.40;96645.00;;;;8241105;28;20638;-64
2023/03/16 05:34:09;;;;;;;71.37;8.80;;;;;-0.30;96650.00;;;;8259069;28;20241;-64
2023/03/16 05:38:12;;;;;;;117.23;10.10;;;;;-0.30;96654.00;;;;8253143;28;20261;-67
2023/03/16 05:42:21;;;;;;;64.43;9.27;;;;;-0.40;96654.00;;;;8250817;28;20316;-67
2023/03/16 05:46:27;;;;;;;38.50;8.70;;;;;-0.40;96655.00;;;;8250772;28;20787;-67
2023/03/16 05:50:31;;;;;;;146.80;10.87;;;;;-0.30;96643.00;;;;8256271;28;20576;-68
2023/03/16 05:54:34;;;;;;;90.33;12.07;;;;;-0.20;96639.00;;;;8244132;28;20983;-67
2023/03/16 05:58:38;;;;;;;135.87;13.53;;;;;-0.20;96635.00;;;;8246229;28;20203;-66
2023/03/16 06:02:45;;;;;;;76.03;10.73;;;;;-0.10;96640.00;;;;8247220;28;20623;-67
2023/03/16 06:06:52;;;;;;;64.63;10.13;;;;;0.00;96651.00;;;;8245468;28;20203;-67
2023/03/16 06:10:56;;;;;;;41.50;9.40;;;;;0.10;96653.00;;;;8244747;28;20194;-67
2023/03/16 06:14:59;;;;;;;64.27;10.90;;;;;0.30;96649.00;;;;8256717;28;20281;-67
2023/03/16 06:19:04;;;;;;;41.70;8.97;;;;;0.50;96656.00;;;;8247620;28;20203;-67
2023/03/16 06:23:09;;;;;;;46.83;9.83;;;;;0.60;96659.00;;;;8239954;28;20673;-67
2023/03/16 06:27:13;;;;;;;52.37;10.20;;;;;0.70;96667.00;;;;8240454;28;20191;-67
2023/03/16 06:31:16;;;;;;;65.40;9.93;;;;;0.90;96663.00;;;;8239307;28;20204;-67
2023/03/16 06:35:23;;;;;;;94.77;9.73;;;;;0.90;96671.00;;;;8244682;28;20288;-67
2023/03/16 06:39:26;;;;;;;67.63;9.93;;;;;1.00;96669.00;;;;8245385;28;20241;-67
2023/03/16 06:43:29;;;;;;;59.03;10.40;;;;;1.10;96672.00;;;;8248273;28;20353;-68
2023/03/16 06:47:36;;;;;;;49.53;8.77;;;;;1.20;96683.00;;;;8244405;28;20246;-67
2023/03/16 06:51:41;;;;;;;57.57;7.93;;;;;1.30;96676.00;;;;8247213;28;20813;-67
2023/03/16 06:55:44;;;;;;;51.83;9.20;;;;;1.30;96677.00;;;;8241551;28;20204;-67
2023/03/16 06:59:48;;;;;;;28.53;8.50;;;;;1.40;96674.00;;;;8247846;28;20213;-68
2023/03/16 07:03:51;;;;;;;30.40;8.50;;;;;1.70;96679.00;;;;8243265;28;20285;-67
2023/03/16 07:08:03;;;;;;;45.33;9.17;;;;;1.80;96688.00;;;;8248118;28;20212;-67
2023/03/16 07:12:07;;;;;;;36.43;8.43;;;;;1.70;96692.00;;;;8245048;28;20240;-68
2023/03/16 07:16:10;;;;;;;34.20;9.10;;;;;1.70;96689.00;;;;8247623;28;20933;-68
2023/03/16 07:20:16;;;;;;;26.57;8.87;;;;;1.70;96701.00;;;;8245011;28;20631;-67
2023/03/16 07:24:22;;;;;;;58.83;9.77;;;;;1.70;96694.00;;;;8247430;28;20669;-68
2023/03/16 07:28:25;;;;;;;38.67;9.53;;;;;1.80;96697.00;;;;8247690;28;20808;-66
2023/03/16 07:32:31;;;;;;;30.60;8.20;;;;;1.90;96700.00;;;;8244570;28;20713;-67
2023/03/16 07:36:35;;;;;;;19.40;8.07;;;;;2.00;96694.00;;;;8243490;28;20208;-69
2023/03/16 07:40:41;;;;;;;28.20;9.40;;;;;2.10;96710.00;;;;8253902;28;20240;-67
2023/03/16 07:44:48;;;;;;;34.63;8.47;;;;;2.30;96705.00;;;;8244288;28;20205;-69
2023/03/16 07:48:57;;;;;;;27.13;8.93;;;;;2.30;96714.00;;;;8244416;28;20761;-69
2023/03/16 07:53:01;;;;;;;21.63;8.77;;;;;2.30;96715.00;;;;8242896;28;20233;-68
2023/03/16 07:57:08;;;;;;;27.07;8.97;;;;;2.60;96715.00;;;;8245343;28;20204;-68
2023/03/16 08:01:11;;;;;;;29.13;9.53;;;;;2.80;96716.00;;;;8243111;28;20200;-73
2023/03/16 08:05:16;;;;;;;25.43;8.97;;;;;3.20;96717.00;;;;8232423;28;20200;-69
2023/03/16 08:09:21;;;;;;;25.83;9.53;;;;;3.50;96719.00;;;;8250396;28;20263;-69
2023/03/16 08:13:28;;;;;;;28.70;9.83;;;;;3.60;96724.00;;;;8249443;28;20232;-70
2023/03/16 08:17:36;;;;;;;27.87;11.07;;;;;3.70;96721.00;;;;8247776;28;20207;-70
2023/03/16 08:21:46;;;;;;;29.60;10.57;;;;;3.90;96728.00;;;;8252660;28;20224;-71
2023/03/16 08:26:07;;;;;;;25.43;10.37;;;;;4.10;96730.00;;;;8245665;28;20233;-70
2023/03/16 08:30:13;;;;;;;22.93;9.57;;;;;4.10;96728.00;;;;8248335;28;20723;-69
2023/03/16 08:34:19;;;;;;;21.20;9.33;;;;;4.30;96724.00;;;;8258542;28;20226;-69
2023/03/16 08:38:22;;;;;;;24.63;10.63;;;;;4.50;96720.00;;;;8257709;28;20206;-69
2023/03/16 08:42:25;;;;;;;19.90;9.37;;;;;4.40;96725.00;;;;8256837;28;20236;-69
2023/03/16 08:46:30;;;;;;;24.27;10.73;;;;;4.30;96721.00;;;;8258894;28;20205;-69
2023/03/16 08:50:34;;;;;;;27.27;10.63;;;;;4.20;96712.00;;;;8260480;28;20328;-69
2023/03/16 08:54:42;;;;;;;21.80;10.27;;;;;4.40;96716.00;;;;8255387;28;20287;-69
2023/03/16 08:59:04;;;;;;;19.00;10.27;;;;;4.80;96714.00;;;;8248656;28;21356;-70
2023/03/16 09:03:12;;;;;;;21.37;10.07;;;;;5.00;96706.00;;;;8253393;28;20230;-70
2023/03/16 09:07:17;;;;;;;17.47;9.10;;;;;4.90;96701.00;;;;8258578;28;20632;-70
2023/03/16 09:11:27;;;;;;;20.20;9.60;;;;;4.90;96712.00;;;;8250994;28;20645;-71
2023/03/16 09:15:30;;;;;;;18.53;9.37;;;;;5.10;96711.00;;;;8253237;28;20233;-71
2023/03/16 09:19:39;;;;;;;16.40;9.20;;;;;5.10;96710.00;;;;8254360;28;20211;-71
2023/03/16 09:23:55;;;;;;;17.93;10.07;;;;;5.30;96721.00;;;;8255415;28;20686;-72
2023/03/16 09:27:59;;;;;;;19.83;9.50;;;;;5.60;96722.00;;;;8252972;28;20620;-73
2023/03/16 09:32:04;;;;;;;16.10;8.63;;;;;5.80;96727.00;;;;8255557;28;20749;-73
2023/03/16 09:36:10;;;;;;;19.33;9.40;;;;;6.40;96733.00;;;;8252121;28;20223;-73
2023/03/16 09:40:21;;;;;;;17.00;9.13;;;;;7.10;96732.00;;;;8250238;28;20203;-74
2023/03/16 09:44:36;;;;;;;17.17;8.87;;;;;7.10;96732.00;;;;8256990;28;20282;-75
2023/03/16 09:48:41;;;;;;;18.83;10.07;;;;;7.20;96739.00;;;;8257179;28;20210;-75
2023/03/16 09:52:54;;;;;;;18.57;10.20;;;;;7.10;96726.00;;;;8240569;28;20258;-76
2023/03/16 09:56:58;;;;;;;17.70;10.13;;;;;7.20;96723.00;;;;8255907;28;20251;-75
2023/03/16 10:01:09;;;;;;;19.27;9.53;;;;;7.10;96723.00;;;;8254812;28;20214;-77
2023/03/16 10:05:20;;;;;;;18.10;9.43;;;;;7.20;96721.00;;;;8247614;28;20773;-77
2023/03/16 10:09:33;;;;;;;13.57;8.27;;;;;7.00;96719.00;;;;8242753;28;20862;-78
2023/03/16 10:13:42;;;;;;;17.93;9.03;;;;;6.90;96710.00;;;;8245363;28;20229;-77
2023/03/16 10:17:49;;;;;;;17.40;9.23;;;;;7.00;96702.00;;;;8241628;28;20603;-79
2023/03/16 10:21:57;;;;;;;34.13;15.67;;;;;7.20;96704.00;;;;8238029;28;20207;-77
2023/03/16 10:26:11;;;;;;;16.80;10.63;;;;;7.10;96697.00;;;;8250083;28;20207;-75
2023/03/16 10:30:24;;;;;;;20.70;10.83;;;;;7.50;96703.00;;;;8243468;28;20207;-77
2023/03/16 10:34:29;;;;;;;22.80;11.07;;;;;7.70;96713.00;;;;8246318;28;20235;-74
2023/03/16 10:38:41;;;;;;;19.00;9.87;;;;;8.20;96716.00;;;;8237798;28;20226;-77
2023/03/16 10:42:46;;;;;;;17.07;9.40;;;;;8.10;96721.00;;;;8244606;28;20495;-73
2023/03/16 10:47:00;;;;;;;15.13;9.17;;;;;7.90;96711.00;;;;8239314;28;20226;-74
2023/03/16 10:51:08;;;;;;;14.40;9.20;;;;;8.00;96703.00;;;;8245566;28;20215;-77
2023/03/16 10:55:19;;;;;;;13.70;9.30;;;;;8.30;96702.00;;;;8249705;28;20281;-79
2023/03/16 10:59:33;;;;;;;15.80;9.67;;;;;8.40;96702.00;;;;8247976;28;20198;-78
2023/03/16 11:03:40;;;;;;;15.70;9.20;;;;;8.30;96704.00;;;;8245294;28;20231;-79
2023/03/16 11:07:49;;;;;;;13.83;8.70;;;;;8.20;96700.00;;;;8252149;28;20667;-78
2023/03/16 11:11:53;;;;;;;18.73;9.60;;;;;8.10;96687.00;;;;8246270;28;20274;-77
2023/03/16 11:16:04;;;;;;;15.13;8.43;;;;;8.10;96686.00;;;;8249991;28;20919;-77
2023/03/16 11:20:16;;;;;;;13.17;8.40;;;;;7.90;96686.00;;;;8251820;28;20203;-81
2023/03/16 11:24:25;;;;;;;16.63;8.63;;;;;7.80;96682.00;;;;8250406;28;20209;-82
2023/03/16 11:28:36;;;;;;;12.37;8.37;;;;;7.90;96665.00;;;;8255577;28;20797;-75
2023/03/16 11:32:47;;;;;;;14.03;8.70;;;;;7.90;96681.00;;;;8250979;28;20203;-81
2023/03/16 11:36:54;;;;;;;14.70;8.37;;;;;8.00;96675.00;;;;8251081;28;20262;-77
2023/03/16 11:41:04;;;;;;;13.67;7.67;;;;;8.10;96672.00;;;;8252478;28;20199;-79
2023/03/16 11:45:19;;;;;;;14.57;8.43;;;;;8.30;96661.00;;;;8248937;28;20293;-80
2023/03/16 11:49:57;;;;;;;19.27;10.70;;;;;8.30;96652.00;;;;8248097;28;20205;-77
2023/03/16 11:54:09;;;;;;;13.43;9.50;;;;;8.30;96651.00;;;;8251880;28;20231;-81
2023/03/16 11:58:40;;;;;;;13.27;8.50;;;;;8.30;96649.00;;;;8251269;28;20612;-78
2023/03/16 12:02:58;;;;;;;13.43;8.80;;;;;8.30;96650.00;;;;8256286;28;20242;-74
2023/03/16 12:07:21;;;;;;;13.10;8.80;;;;;8.40;96639.00;;;;8257521;28;20207;-75
2023/03/16 12:11:28;;;;;;;13.47;8.37;;;;;8.30;96629.00;;;;8259169;28;20230;-76
2023/03/16 12:15:40;;;;;;;12.70;8.03;;;;;8.30;96628.00;;;;8260147;28;20365;-77
2023/03/16 12:19:49;;;;;;;17.20;8.77;;;;;8.20;96624.00;;;;8255318;28;20761;-79
2023/03/16 12:23:59;;;;;;;11.53;7.67;;;;;8.30;96622.00;;;;8258355;28;20287;-78
2023/03/16 12:28:06;;;;;;;12.47;7.90;;;;;8.30;96616.00;;;;8254116;28;20274;-78
2023/03/16 12:32:12;;;;;;;12.87;8.30;;;;;8.30;96616.00;;;;8254450;28;20203;-75
2023/03/16 12:36:36;;;;;;;9.87;7.53;;;;;8.40;96606.00;;;;8255908;28;20665;-78
2023/03/16 12:40:49;;;;;;;10.77;7.57;;;;;8.40;96601.00;;;;8256988;28;20239;-74
2023/03/16 12:44:56;;;;;;;11.35;7.68;;;;;8.40;96598.00;;;;8250450;28;20203;-76
2023/03/16 12:49:02;;;;;;;12.07;6.90;;;;;8.50;96579.00;;;;8254508;28;20194;-77
2023/03/16 12:53:06;;;;;;;9.65;7.03;;;;;8.50;96596.00;;;;8257697;28;20213;-76
2023/03/16 12:57:17;;;;;;;11.45;7.45;;;;;8.60;96592.00;;;;8254590;28;20628;-76
2023/03/16 13:01:27;;;;;;;11.23;7.07;;;;;8.60;96575.00;;;;8243628;28;20199;-75
2023/03/16 13:05:34;;;;;;;11.13;7.10;;;;;8.60;96588.00;;;;8251302;28;20277;-74
2023/03/16 13:09:47;;;;;;;12.53;7.70;;;;;8.80;96575.00;;;;8248108;28;20706;-76
2023/03/16 13:14:07;;;;;;;8.32;5.45;;;;;8.90;96573.00;;;;8244040;28;20569;-82
2023/03/16 13:18:23;;;;;;;7.05;5.10;;;;;9.00;96561.00;;;;8254251;28;20195;-76
2023/03/16 13:22:31;;;;;;;7.10;5.73;;;;;9.10;96566.00;;;;8243006;28;20235;-77
2023/03/16 13:26:43;;;;;;;10.10;5.15;;;;;9.20;96569.00;;;;8241489;28;20655;-76
2023/03/16 13:30:52;;;;;;;11.20;6.72;;;;;9.30;96561.00;;;;8248584;28;20195;-77
2023/03/16 13:35:02;;;;;;;8.83;5.90;;;;;9.30;96538.00;;;;8248142;28;20278;-80
2023/03/16 13:39:12;;;;;;;6.97;5.07;;;;;9.40;96530.00;;;;8255173;28;20243;-81
2023/03/16 13:43:16;;;;;;;8.27;5.67;;;;;9.40;96546.00;;;;8248949;28;20734;-81
2023/03/16 13:47:25;;;;;;;7.72;5.35;;;;;9.50;96540.00;;;;8249318;28;20207;-80
2023/03/16 13:51:33;;;;;;;7.07;5.53;;;;;9.60;96542.00;;;;8250652;28;20200;-75
2023/03/16 13:55:39;;;;;;;7.43;5.07;;;;;9.60;96539.00;;;;8242865;28;20633;-76
2023/03/16 13:59:44;;;;;;;8.38;5.22;;;;;9.70;96532.00;;;;8248193;28;20258;-75
2023/03/16 14:03:52;;;;;;;9.88;5.35;;;;;9.80;96531.00;;;;8252810;28;20227;-78
2023/03/16 14:07:59;;;;;;;7.15;5.55;;;;;9.80;96527.00;;;;8256025;28;20257;-85
2023/03/16 14:12:02;;;;;;;7.28;5.40;;;;;10.00;96540.00;;;;8242569;28;20232;-77
2023/03/16 14:16:13;;;;;;;6.65;5.57;;;;;10.20;96533.00;;;;8246731;28;20718;-81
2023/03/16 14:20:22;;;;;;;6.43;4.85;;;;;10.40;96532.00;;;;8243091;28;20294;-74
2023/03/16 14:24:31;;;;;;;8.05;5.43;;;;;10.50;96532.00;;;;8240569;28;20237;-73
2023/03/16 14:28:35;;;;;;;7.70;5.22;;;;;10.60;96524.00;;;;8242548;28;20199;-75
2023/03/16 14:32:38;;;;;;;5.60;4.68;;;;;10.70;96519.00;;;;8246010;28;20195;-78
2023/03/16 14:36:43;;;;;;;5.80;4.90;;;;;10.80;96512.00;;;;8243820;28;20227;-80
2023/03/16 14:40:56;;;;;;;6.82;4.65;;;;;11.00;96511.00;;;;8251679;28;20762;-73
2023/03/16 14:45:03;;;;;;;4.43;3.70;;;;;11.10;96508.00;;;;8252564;28;20233;-75
2023/03/16 14:49:12;;;;;;;11.50;4.35;;;;;11.20;96504.00;;;;8239693;28;20243;-77
2023/03/16 14:53:18;;;;;;;5.50;4.30;;;;;11.30;96518.00;;;;8241289;28;20466;-73
2023/03/16 14:57:21;;;;;;;5.13;4.25;;;;;11.40;96513.00;;;;8244100;28;20230;-79
2023/03/16 15:01:25;;;;;;;7.25;4.50;;;;;11.40;96495.00;;;;8249080;28;20297;-81
2023/03/16 15:05:34;;;;;;;6.70;4.40;;;;;11.10;96487.00;;;;8246126;28;20257;-77
2023/03/16 15:09:44;;;;;;;4.40;3.90;;;;;10.60;96486.00;;;;8258307;28;20202;-74
2023/03/16 15:14:02;;;;;;;4.40;4.00;;;;;10.40;96485.00;;;;8246551;28;20288;-73
2023/03/16 15:18:07;;;;;;;7.35;4.05;;;;;10.50;96475.00;;;;8249723;28;20310;-76
2023/03/16 15:22:12;;;;;;;5.15;4.07;;;;;10.70;96472.00;;;;8250713;28;20253;-76
2023/03/16 15:26:25;;;;;;;5.03;4.18;;;;;10.80;96465.00;;;;8253488;28;20202;-75
2023/03/16 15:30:30;;;;;;;3.95;3.63;;;;;10.90;96459.00;;;;8243878;28;20205;-75
2023/03/16 15:34:39;;;;;;;9.18;6.32;;;;;10.90;96464.00;;;;8237861;28;20693;-71
2023/03/16 15:47:28;;;;;;;7.72;4.32;;;;;9.70;96451.00;;;;8429452;27;20331;-75
2023/03/16 15:52:59;;;;;;;4.75;4.25;;;;;9.90;96432.00;;;;8471867;27;20294;-72
2023/03/16 15:57:05;;;;;;;7.93;4.70;;;;;10.00;96436.00;;;;8473867;27;20212;-73
2023/03/16 16:01:16;;;;;;;4.57;3.97;;;;;9.90;96421.00;;;;8467383;27;20293;-73
2023/03/16 16:05:20;;;;;;;4.43;3.70;;;;;9.90;96435.00;;;;8468830;28;20201;-73
2023/03/16 16:09:30;;;;;;;4.53;4.13;;;;;9.80;96434.00;;;;8465100;27;20305;-73
2023/03/16 16:13:34;;;;;;;5.30;3.67;;;;;9.70;96431.00;;;;8464497;27;20697;-77
2023/03/16 16:17:47;;;;;;;3.88;3.10;;;;;9.60;96436.00;;;;8464768;27;20198;-76
2023/03/16 16:22:11;;;;;;;10.50;4.05;;;;;9.50;96435.00;;;;8466052;28;20220;-79
2023/03/16 16:26:25;;;;;;;5.30;4.00;;;;;9.30;96433.00;;;;8464069;28;20199;-78
2023/03/16 16:30:44;;;;;;;4.88;4.10;;;;;9.20;96428.00;;;;8458504;27;20228;-75
2023/03/16 16:34:47;;;;;;;4.03;3.63;;;;;9.10;96439.00;;;;8470060;28;20620;-80
2023/03/16 16:39:06;;;;;;;4.37;3.90;;;;;8.90;96442.00;;;;8467192;28;20645;-74
2023/03/16 16:43:18;;;;;;;4.13;3.70;;;;;8.80;96451.00;;;;8465207;27;20194;-73
2023/03/16 16:47:21;;;;;;;4.38;3.75;;;;;8.70;96449.00;;;;8461330;28;20194;-74
2023/03/16 16:51:27;;;;;;;3.47;3.17;;;;;8.50;96453.00;;;;8466272;28;20942;-75
2023/03/16 16:55:33;;;;;;;5.40;3.95;;;;;8.40;96458.00;;;;8468436;27;20620;-75
2023/03/16 16:59:38;;;;;;;8.63;4.77;;;;;8.20;96459.00;;;;8466351;27;20191;-74
2023/03/16 17:03:42;;;;;;;5.25;3.83;;;;;8.00;96454.00;;;;8441836;27;20565;-76
2023/03/16 17:07:52;;;;;;;10.85;4.18;;;;;7.90;96460.00;;;;8443208;28;20549;-75
2023/03/16 17:11:57;;;;;;;5.60;4.25;;;;;7.70;96462.00;;;;8434406;28;20234;-77
2023/03/16 17:16:05;;;;;;;5.90;5.07;;;;;7.50;96474.00;;;;8444710;28;20877;-76
2023/03/16 17:20:18;;;;;;;8.75;5.50;;;;;7.30;96467.00;;;;8443947;28;20241;-74
2023/03/16 17:24:28;;;;;;;7.00;4.17;;;;;7.20;96469.00;;;;8444610;28;20210;-74
2023/03/16 17:28:37;;;;;;;6.97;4.30;;;;;7.00;96463.00;;;;8438865;28;20187;-74
2023/03/16 17:32:44;;;;;;;5.27;4.03;;;;;6.80;96459.00;;;;8445951;28;20253;-76
2023/03/16 17:36:50;;;;;;;7.27;4.03;;;;;6.70;96449.00;;;;8450338;28;20201;-74
2023/03/16 17:40:55;;;;;;;6.93;4.17;;;;;6.50;96443.00;;;;8434950;28;20205;-75
2023/03/16 17:45:00;;;;;;;6.17;3.93;;;;;6.40;96442.00;;;;8442025;28;20209;-76
2023/03/16 17:49:12;;;;;;;5.37;3.70;;;;;6.30;96441.00;;;;8439555;28;20252;-76
2023/03/16 17:53:20;;;;;;;3.90;3.33;;;;;6.20;96441.00;;;;8441371;28;20688;-74
2023/03/16 17:57:27;;;;;;;5.23;3.57;;;;;6.10;96437.00;;;;8443035;27;20912;-73
2023/03/16 18:01:33;;;;;;;5.53;3.63;;;;;6.10;96430.00;;;;8441276;28;20624;-74
2023/03/16 18:05:38;;;;;;;6.40;3.53;;;;;6.00;96422.00;;;;8441158;28;20556;-76
2023/03/16 18:09:41;;;;;;;31.47;11.90;;;;;6.00;96420.00;;;;8440797;28;20203;-74
2023/03/16 18:13:45;;;;;;;41.93;11.57;;;;;6.00;96433.00;;;;8436418;28;20203;-78
2023/03/16 18:17:49;;;;;;;77.27;18.67;;;;;6.00;96437.00;;;;8440575;28;20203;-74
2023/03/16 18:21:56;;;;;;;23.07;8.37;;;;;6.00;96418.00;;;;8443328;28;20656;-74
2023/03/16 18:26:02;;;;;;;20.10;7.60;;;;;6.00;96415.00;;;;8450090;28;20199;-76
2023/03/16 18:30:10;;;;;;;19.13;6.60;;;;;6.00;96412.00;;;;8434146;28;20882;-76
2023/03/16 18:34:20;;;;;;;30.23;8.90;;;;;5.90;96420.00;;;;8434770;28;20203;-76
2023/03/16 18:38:30;;;;;;;19.10;7.07;;;;;5.90;96423.00;;;;8443974;28;20191;-76
2023/03/16 18:42:33;;;;;;;45.27;14.40;;;;;5.90;96431.00;;;;8435571;28;20245;-74
2023/03/16 18:46:37;;;;;;;15.57;7.37;;;;;5.80;96422.00;;;;8440168;28;20275;-77
2023/03/16 18:50:42;;;;;;;8.33;5.30;;;;;5.80;96440.00;;;;8448164;28;20238;-75
2023/03/16 18:54:50;;;;;;;13.10;6.80;;;;;5.70;96442.00;;;;8440433;28;20688;-77
2023/03/16 18:58:54;;;;;;;7.63;4.33;;;;;5.70;96435.00;;;;8447506;27;20195;-73
2023/03/16 19:03:00;;;;;;;9.93;4.30;;;;;5.60;96429.00;;;;8440125;28;20305;-74
2023/03/16 19:07:08;;;;;;;9.63;4.80;;;;;5.60;96413.00;;;;8440981;27;20195;-76
2023/03/16 19:11:17;;;;;;;11.30;5.60;;;;;5.50;96414.00;;;;8437113;27;20226;-78
2023/03/16 19:15:23;;;;;;;10.43;5.57;;;;;5.40;96413.00;;;;8435053;27;20202;-77
2023/03/16 19:19:27;;;;;;;8.03;4.67;;;;;5.30;96404.00;;;;8439239;27;20195;-74
2023/03/16 19:23:35;;;;;;;6.50;4.73;;;;;5.30;96408.00;;;;8451717;27;20194;-78
2023/03/16 19:27:42;;;;;;;10.77;7.33;;;;;5.30;96408.00;;;;8436558;27;20206;-77
2023/03/16 19:31:45;;;;;;;3.70;3.40;;;;;5.20;96402.00;;;;8438615;27;20288;-76
2023/03/16 19:35:49;;;;;;;9.23;4.63;;;;;5.20;96408.00;;;;8437493;28;20191;-74
2023/03/16 19:39:54;;;;;;;36.47;10.70;;;;;5.20;96401.00;;;;8441343;28;20201;-76
2023/03/16 19:44:09;;;;;;;52.93;18.33;;;;;5.20;96406.00;;;;8435934;28;20240;-75
2023/03/16 19:48:22;;;;;;;26.73;9.87;;;;;5.20;96401.00;;;;8431018;28;20198;-74
2023/03/16 19:52:30;;;;;;;10.73;5.30;;;;;5.10;96410.00;;;;8439932;28;20226;-76
2023/03/16 19:56:33;;;;;;;9.40;5.57;;;;;5.10;96400.00;;;;8442520;28;20209;-72
2023/03/16 20:00:37;;;;;;;8.20;4.67;;;;;5.10;96408.00;;;;8441538;28;20191;-77
2023/03/16 20:04:41;;;;;;;6.77;5.70;;;;;5.10;96404.00;;;;8437129;28;20229;-75
2023/03/16 20:08:45;;;;;;;7.93;4.47;;;;;5.20;96394.00;;;;8439757;28;20206;-73
2023/03/16 20:12:51;;;;;;;6.30;3.63;;;;;5.20;96404.00;;;;8437951;28;20230;-71
2023/03/16 20:16:56;;;;;;;6.20;5.13;;;;;5.30;96412.00;;;;8436971;28;20202;-76
2023/03/16 20:21:02;;;;;;;6.93;4.80;;;;;5.30;96408.00;;;;8439260;28;20242;-75
2023/03/16 20:25:09;;;;;;;9.53;5.93;;;;;5.20;96400.00;;;;8434660;28;20237;-73
2023/03/16 20:29:21;;;;;;;4.93;4.27;;;;;5.20;96399.00;;;;8425220;28;20195;-75
2023/03/16 20:33:30;;;;;;;4.27;3.53;;;;;5.20;96393.00;;;;8421597;28;20688;-74
2023/03/16 20:37:34;;;;;;;4.50;3.50;;;;;5.10;96390.00;;;;8438221;28;20885;-73
2023/03/16 20:41:38;;;;;;;5.57;3.77;;;;;5.00;96386.00;;;;8436567;27;20248;-73
2023/03/16 20:45:42;;;;;;;5.90;4.17;;;;;5.00;96380.00;;;;8433306;27;20256;-73